sensor_id;sensor_type;location;lat;lon;timestamp;pressure;altitude;pressure_sealevel;temperature;humidity
39891;BME280;25564;53.312;9.790;2023-12-29T00:02:23;99911.34;;;8.90;81.18
39891;BME280;25564;53.312;9.790;2023-12-29T00:04:56;99925.81;;;8.92;81.08
39891;BME280;25564;53.312;9.790;2023-12-29T00:07:28;99899.94;;;8.92;81.00
39891;BME280;25564;53.312;9.790;2023-12-29T00:10:00;99902.25;;;8.95;81.55
39891;BME280;25564;53.312;9.790;2023-12-29T00:12:32;99918.47;;;8.98;81.17
39891;BME280;25564;53.312;9.790;2023-12-29T00:15:04;99903.75;;;8.98;81.25
39891;BME280;25564;53.312;9.790;2023-12-29T00:17:40;99907.97;;;8.99;81.06
39891;BME280;25564;53.312;9.790;2023-12-29T00:20:12;99902.94;;;8.98;80.94
39891;BME280;25564;53.312;9.790;2023-12-29T00:22:52;99908.66;;;9.01;81.03
39891;BME280;25564;53.312;9.790;2023-12-29T00:25:25;99903.31;;;9.03;81.37
39891;BME280;25564;53.312;9.790;2023-12-29T00:27:57;99892.03;;;9.04;81.10
39891;BME280;25564;53.312;9.790;2023-12-29T00:30:29;99893.66;;;9.05;81.09
39891;BME280;25564;53.312;9.790;2023-12-29T00:33:23;99872.16;;;9.04;81.14
39891;BME280;25564;53.312;9.790;2023-12-29T00:35:55;99873.91;;;9.04;81.36
39891;BME280;25564;53.312;9.790;2023-12-29T00:38:27;99893.53;;;9.06;81.50
39891;BME280;25564;53.312;9.790;2023-12-29T00:41:01;99878.81;;;9.07;81.09
39891;BME280;25564;53.312;9.790;2023-12-29T00:43:33;99887.38;;;9.07;81.01
39891;BME280;25564;53.312;9.790;2023-12-29T00:46:05;99868.44;;;9.07;81.04
39891;BME280;25564;53.312;9.790;2023-12-29T00:48:37;99872.94;;;9.05;80.91
39891;BME280;25564;53.312;9.790;2023-12-29T00:51:10;99865.06;;;9.06;81.22
39891;BME280;25564;53.312;9.790;2023-12-29T00:53:42;99862.59;;;9.05;81.32
39891;BME280;25564;53.312;9.790;2023-12-29T00:56:16;99866.69;;;9.07;81.23
39891;BME280;25564;53.312;9.790;2023-12-29T00:58:49;99863.94;;;9.09;81.05
39891;BME280;25564;53.312;9.790;2023-12-29T01:01:21;99871.72;;;9.09;80.94
39891;BME280;25564;53.312;9.790;2023-12-29T01:03:55;99851.16;;;9.07;80.93
39891;BME280;25564;53.312;9.790;2023-12-29T01:06:27;99858.09;;;9.07;80.87
39891;BME280;25564;53.312;9.790;2023-12-29T01:08:59;99850.31;;;9.07;80.92
39891;BME280;25564;53.312;9.790;2023-12-29T01:11:32;99859.06;;;9.06;81.25
39891;BME280;25564;53.312;9.790;2023-12-29T01:14:03;99860.97;;;9.04;80.89
39891;BME280;25564;53.312;9.790;2023-12-29T01:16:35;99856.88;;;9.01;81.05
39891;BME280;25564;53.312;9.790;2023-12-29T01:19:07;99866.41;;;9.01;81.71
39891;BME280;25564;53.312;9.790;2023-12-29T01:21:38;99847.59;;;8.98;81.57
39891;BME280;25564;53.312;9.790;2023-12-29T01:24:10;99856.19;;;8.99;81.58
39891;BME280;25564;53.312;9.790;2023-12-29T01:26:45;99856.59;;;8.94;81.25
39891;BME280;25564;53.312;9.790;2023-12-29T01:29:17;99851.44;;;8.94;81.72
39891;BME280;25564;53.312;9.790;2023-12-29T01:31:49;99860.84;;;8.95;81.50
39891;BME280;25564;53.312;9.790;2023-12-29T01:34:21;99861.53;;;8.98;81.47
39891;BME280;25564;53.312;9.790;2023-12-29T01:36:53;99859.59;;;9.00;81.77
39891;BME280;25564;53.312;9.790;2023-12-29T01:39:25;99858.78;;;8.99;81.33
39891;BME280;25564;53.312;9.790;2023-12-29T01:41:58;99856.88;;;9.01;81.53
39891;BME280;25564;53.312;9.790;2023-12-29T01:44:31;99850.88;;;9.01;81.60
39891;BME280;25564;53.312;9.790;2023-12-29T01:47:05;99867.22;;;9.01;81.57
39891;BME280;25564;53.312;9.790;2023-12-29T01:49:43;99856.47;;;8.96;81.70
39891;BME280;25564;53.312;9.790;2023-12-29T01:52:17;99852.81;;;8.89;81.54
39891;BME280;25564;53.312;9.790;2023-12-29T01:54:50;99847.59;;;8.79;81.31
39891;BME280;25564;53.312;9.790;2023-12-29T01:57:23;99849.81;;;8.74;81.28
39891;BME280;25564;53.312;9.790;2023-12-29T01:59:56;99844.06;;;8.71;81.76
39891;BME280;25564;53.312;9.790;2023-12-29T02:02:28;99845.16;;;8.68;81.46
39891;BME280;25564;53.312;9.790;2023-12-29T02:04:59;99834.00;;;8.68;81.24
39891;BME280;25564;53.312;9.790;2023-12-29T02:07:32;99837.63;;;8.65;81.09
39891;BME280;25564;53.312;9.790;2023-12-29T02:10:04;99834.66;;;8.60;81.36
39891;BME280;25564;53.312;9.790;2023-12-29T02:12:36;99840.09;;;8.57;81.41
39891;BME280;25564;53.312;9.790;2023-12-29T02:15:11;99828.38;;;8.53;81.51
39891;BME280;25564;53.312;9.790;2023-12-29T02:17:52;99825.78;;;8.53;81.59
39891;BME280;25564;53.312;9.790;2023-12-29T02:20:29;99825.78;;;8.53;81.47
39891;BME280;25564;53.312;9.790;2023-12-29T02:23:02;99812.72;;;8.55;81.58
39891;BME280;25564;53.312;9.790;2023-12-29T02:25:34;99811.63;;;8.57;82.01
39891;BME280;25564;53.312;9.790;2023-12-29T02:28:23;99821.97;;;8.57;81.82
39891;BME280;25564;53.312;9.790;2023-12-29T02:31:01;99808.38;;;8.55;81.94
39891;BME280;25564;53.312;9.790;2023-12-29T02:33:40;99803.44;;;8.52;81.86
39891;BME280;25564;53.312;9.790;2023-12-29T02:36:13;99800.19;;;8.50;82.16
39891;BME280;25564;53.312;9.790;2023-12-29T02:38:45;99805.63;;;8.47;81.91
39891;BME280;25564;53.312;9.790;2023-12-29T02:41:17;99794.72;;;8.44;81.91
39891;BME280;25564;53.312;9.790;2023-12-29T02:43:49;99792.56;;;8.39;81.59
39891;BME280;25564;53.312;9.790;2023-12-29T02:46:21;99785.31;;;8.33;81.71
39891;BME280;25564;53.312;9.790;2023-12-29T02:48:52;99796.09;;;8.29;81.48
39891;BME280;25564;53.312;9.790;2023-12-29T02:51:24;99768.72;;;8.26;81.87
39891;BME280;25564;53.312;9.790;2023-12-29T02:53:56;99792.41;;;8.22;81.81
39891;BME280;25564;53.312;9.790;2023-12-29T02:56:27;99790.22;;;8.17;81.72
39891;BME280;25564;53.312;9.790;2023-12-29T02:58:59;99797.53;;;8.02;81.30
39891;BME280;25564;53.312;9.790;2023-12-29T03:01:31;99801.56;;;7.86;81.18
39891;BME280;25564;53.312;9.790;2023-12-29T03:04:04;99797.81;;;7.69;81.65
39891;BME280;25564;53.312;9.790;2023-12-29T03:06:35;99794.53;;;7.58;81.40
39891;BME280;25564;53.312;9.790;2023-12-29T03:09:07;99799.13;;;7.54;82.12
39891;BME280;25564;53.312;9.790;2023-12-29T03:11:39;99796.00;;;7.51;82.38
39891;BME280;25564;53.312;9.790;2023-12-29T03:14:10;99805.88;;;7.46;82.42
39891;BME280;25564;53.312;9.790;2023-12-29T03:16:42;99816.88;;;7.48;82.85
39891;BME280;25564;53.312;9.790;2023-12-29T03:19:14;99795.69;;;7.44;82.93
39891;BME280;25564;53.312;9.790;2023-12-29T03:21:46;99787.94;;;7.44;82.43
39891;BME280;25564;53.312;9.790;2023-12-29T03:24:19;99769.72;;;7.46;83.05
39891;BME280;25564;53.312;9.790;2023-12-29T03:26:50;99777.47;;;7.46;82.91
39891;BME280;25564;53.312;9.790;2023-12-29T03:29:22;99756.13;;;7.44;82.72
39891;BME280;25564;53.312;9.790;2023-12-29T03:31:54;99740.78;;;7.42;82.98
39891;BME280;25564;53.312;9.790;2023-12-29T03:34:26;99732.59;;;7.37;82.68
39891;BME280;25564;53.312;9.790;2023-12-29T03:36:57;99722.66;;;7.32;83.06
39891;BME280;25564;53.312;9.790;2023-12-29T03:39:29;99723.59;;;7.31;82.86
39891;BME280;25564;53.312;9.790;2023-12-29T03:42:02;99729.97;;;7.27;82.88
39891;BME280;25564;53.312;9.790;2023-12-29T03:44:34;99728.22;;;7.28;83.09
39891;BME280;25564;53.312;9.790;2023-12-29T03:47:05;99726.19;;;7.31;82.92
39891;BME280;25564;53.312;9.790;2023-12-29T03:49:38;99728.06;;;7.29;83.23
39891;BME280;25564;53.312;9.790;2023-12-29T03:52:10;99736.50;;;7.31;83.35
39891;BME280;25564;53.312;9.790;2023-12-29T03:54:42;99724.28;;;7.33;83.34
39891;BME280;25564;53.312;9.790;2023-12-29T03:57:14;99708.56;;;7.36;83.41
39891;BME280;25564;53.312;9.790;2023-12-29T03:59:46;99728.38;;;7.36;83.41
39891;BME280;25564;53.312;9.790;2023-12-29T04:02:18;99727.56;;;7.35;83.42
39891;BME280;25564;53.312;9.790;2023-12-29T04:04:50;99732.03;;;7.33;83.17
39891;BME280;25564;53.312;9.790;2023-12-29T04:07:22;99738.97;;;7.33;83.16
39891;BME280;25564;53.312;9.790;2023-12-29T04:09:53;99756.63;;;7.28;83.31
39891;BME280;25564;53.312;9.790;2023-12-29T04:12:25;99778.56;;;7.22;83.36
39891;BME280;25564;53.312;9.790;2023-12-29T04:14:58;99845.84;;;7.10;83.14
39891;BME280;25564;53.312;9.790;2023-12-29T04:17:29;99863.53;;;6.51;79.90
39891;BME280;25564;53.312;9.790;2023-12-29T04:20:03;99857.78;;;5.82;79.24
39891;BME280;25564;53.312;9.790;2023-12-29T04:22:35;99859.28;;;5.52;80.63
39891;BME280;25564;53.312;9.790;2023-12-29T04:25:07;99841.91;;;5.32;80.89
39891;BME280;25564;53.312;9.790;2023-12-29T04:27:40;99828.91;;;5.22;81.85
39891;BME280;25564;53.312;9.790;2023-12-29T04:30:12;99830.97;;;5.17;82.45
39891;BME280;25564;53.312;9.790;2023-12-29T04:32:45;99818.03;;;5.19;82.87
39891;BME280;25564;53.312;9.790;2023-12-29T04:35:17;99808.53;;;5.19;83.34
39891;BME280;25564;53.312;9.790;2023-12-29T04:37:50;99810.41;;;5.17;82.95
39891;BME280;25564;53.312;9.790;2023-12-29T04:40:22;99818.81;;;5.19;83.39
39891;BME280;25564;53.312;9.790;2023-12-29T04:42:54;99820.34;;;5.22;83.39
39891;BME280;25564;53.312;9.790;2023-12-29T04:45:29;99807.72;;;5.19;83.33
39891;BME280;25564;53.312;9.790;2023-12-29T04:48:00;99813.91;;;5.16;83.33
39891;BME280;25564;53.312;9.790;2023-12-29T04:50:33;99833.66;;;5.16;83.03
39891;BME280;25564;53.312;9.790;2023-12-29T04:53:04;99832.84;;;5.15;83.20
39891;BME280;25564;53.312;9.790;2023-12-29T04:55:36;99822.56;;;5.15;83.74
39891;BME280;25564;53.312;9.790;2023-12-29T04:58:08;99811.34;;;5.16;83.38
39891;BME280;25564;53.312;9.790;2023-12-29T05:00:39;99802.81;;;5.16;83.29
39891;BME280;25564;53.312;9.790;2023-12-29T05:03:12;99793.09;;;5.19;83.63
39891;BME280;25564;53.312;9.790;2023-12-29T05:05:44;99809.59;;;5.17;83.16
39891;BME280;25564;53.312;9.790;2023-12-29T05:08:16;99788.06;;;5.18;83.16
39891;BME280;25564;53.312;9.790;2023-12-29T05:10:48;99782.81;;;5.19;83.58
39891;BME280;25564;53.312;9.790;2023-12-29T05:13:20;99765.50;;;5.21;83.26
39891;BME280;25564;53.312;9.790;2023-12-29T05:15:51;99788.44;;;5.24;83.83
39891;BME280;25564;53.312;9.790;2023-12-29T05:18:23;99806.25;;;5.27;84.08
39891;BME280;25564;53.312;9.790;2023-12-29T05:20:55;99799.94;;;5.31;84.09
39891;BME280;25564;53.312;9.790;2023-12-29T05:23:27;99789.19;;;5.37;83.72
39891;BME280;25564;53.312;9.790;2023-12-29T05:25:58;99770.34;;;5.37;83.78
39891;BME280;25564;53.312;9.790;2023-12-29T05:28:30;99795.88;;;5.40;83.96
39891;BME280;25564;53.312;9.790;2023-12-29T05:31:02;99783.69;;;5.42;83.61
39891;BME280;25564;53.312;9.790;2023-12-29T05:33:35;99779.47;;;5.41;83.64
39891;BME280;25564;53.312;9.790;2023-12-29T05:36:09;99780.19;;;5.43;84.04
39891;BME280;25564;53.312;9.790;2023-12-29T05:38:44;99771.06;;;5.50;83.85
39891;BME280;25564;53.312;9.790;2023-12-29T05:41:19;99777.03;;;5.50;84.27
39891;BME280;25564;53.312;9.790;2023-12-29T05:43:51;99784.63;;;5.52;84.28
39891;BME280;25564;53.312;9.790;2023-12-29T05:46:23;99778.66;;;5.51;84.02
39891;BME280;25564;53.312;9.790;2023-12-29T05:48:54;99778.88;;;5.48;83.70
39891;BME280;25564;53.312;9.790;2023-12-29T05:51:26;99768.13;;;5.43;83.55
39891;BME280;25564;53.312;9.790;2023-12-29T05:53:58;99769.31;;;5.39;83.73
39891;BME280;25564;53.312;9.790;2023-12-29T05:56:30;99771.41;;;5.34;83.68
39891;BME280;25564;53.312;9.790;2023-12-29T05:59:02;99759.69;;;5.30;83.38
39891;BME280;25564;53.312;9.790;2023-12-29T06:01:35;99767.19;;;5.33;83.57
39891;BME280;25564;53.312;9.790;2023-12-29T06:04:08;99752.22;;;5.38;83.68
39891;BME280;25564;53.312;9.790;2023-12-29T06:06:42;99751.41;;;5.38;83.74
39891;BME280;25564;53.312;9.790;2023-12-29T06:09:14;99768.94;;;5.33;83.62
39891;BME280;25564;53.312;9.790;2023-12-29T06:11:45;99784.38;;;5.33;83.46
39891;BME280;25564;53.312;9.790;2023-12-29T06:14:17;99781.56;;;5.36;83.40
39891;BME280;25564;53.312;9.790;2023-12-29T06:16:49;99773.84;;;5.36;83.61
39891;BME280;25564;53.312;9.790;2023-12-29T06:19:22;99782.03;;;5.41;83.66
39891;BME280;25564;53.312;9.790;2023-12-29T06:21:54;99768.84;;;5.45;83.99
39891;BME280;25564;53.312;9.790;2023-12-29T06:24:25;99778.66;;;5.51;83.91
39891;BME280;25564;53.312;9.790;2023-12-29T06:26:57;99767.31;;;5.54;83.89
39891;BME280;25564;53.312;9.790;2023-12-29T06:29:29;99774.31;;;5.63;83.98
39891;BME280;25564;53.312;9.790;2023-12-29T06:32:00;99782.16;;;5.72;84.03
39891;BME280;25564;53.312;9.790;2023-12-29T06:34:32;99776.31;;;5.82;84.31
39891;BME280;25564;53.312;9.790;2023-12-29T06:37:05;99776.63;;;5.88;84.31
39891;BME280;25564;53.312;9.790;2023-12-29T06:39:38;99791.72;;;5.93;84.15
39891;BME280;25564;53.312;9.790;2023-12-29T06:42:11;99797.34;;;5.98;84.22
39891;BME280;25564;53.312;9.790;2023-12-29T06:44:43;99799.94;;;5.98;84.28
39891;BME280;25564;53.312;9.790;2023-12-29T06:47:15;99806.59;;;6.00;84.11
39891;BME280;25564;53.312;9.790;2023-12-29T06:49:48;99793.38;;;6.05;84.26
39891;BME280;25564;53.312;9.790;2023-12-29T06:52:19;99797.44;;;6.07;84.19
39891;BME280;25564;53.312;9.790;2023-12-29T06:54:51;99796.72;;;6.16;84.33
39891;BME280;25564;53.312;9.790;2023-12-29T06:57:23;99790.41;;;6.20;83.78
39891;BME280;25564;53.312;9.790;2023-12-29T06:59:55;99795.31;;;6.23;84.02
39891;BME280;25564;53.312;9.790;2023-12-29T07:02:27;99802.22;;;6.23;83.74
39891;BME280;25564;53.312;9.790;2023-12-29T07:04:58;99791.78;;;6.24;83.92
39891;BME280;25564;53.312;9.790;2023-12-29T07:07:31;99788.63;;;6.32;83.80
39891;BME280;25564;53.312;9.790;2023-12-29T07:10:04;99793.53;;;6.35;84.03
39891;BME280;25564;53.312;9.790;2023-12-29T07:12:38;99804.38;;;6.38;83.88
39891;BME280;25564;53.312;9.790;2023-12-29T07:15:10;99804.28;;;6.40;83.73
39891;BME280;25564;53.312;9.790;2023-12-29T07:17:45;99804.28;;;6.40;83.49
39891;BME280;25564;53.312;9.790;2023-12-29T07:20:17;99803.25;;;6.42;83.94
39891;BME280;25564;53.312;9.790;2023-12-29T07:22:49;99795.38;;;6.44;83.05
39891;BME280;25564;53.312;9.790;2023-12-29T07:25:21;99791.03;;;6.44;83.60
39891;BME280;25564;53.312;9.790;2023-12-29T07:27:54;99796.06;;;6.46;83.49
39891;BME280;25564;53.312;9.790;2023-12-29T07:30:26;99800.16;;;6.48;83.47
39891;BME280;25564;53.312;9.790;2023-12-29T07:32:57;99806.81;;;6.51;83.31
39891;BME280;25564;53.312;9.790;2023-12-29T07:35:29;99801.66;;;6.51;83.50
39891;BME280;25564;53.312;9.790;2023-12-29T07:38:02;99808.47;;;6.52;83.59
39891;BME280;25564;53.312;9.790;2023-12-29T07:40:36;99811.88;;;6.52;83.45
39891;BME280;25564;53.312;9.790;2023-12-29T07:43:11;99806.59;;;6.54;83.15
39891;BME280;25564;53.312;9.790;2023-12-29T07:45:44;99807.28;;;6.56;83.50
39891;BME280;25564;53.312;9.790;2023-12-29T07:48:16;99805.66;;;6.55;83.38
39891;BME280;25564;53.312;9.790;2023-12-29T07:50:48;99802.81;;;6.58;83.23
39891;BME280;25564;53.312;9.790;2023-12-29T07:53:20;99796.84;;;6.57;83.20
39891;BME280;25564;53.312;9.790;2023-12-29T07:55:52;99814.78;;;6.59;82.98
39891;BME280;25564;53.312;9.790;2023-12-29T07:58:25;99811.13;;;6.61;83.35
39891;BME280;25564;53.312;9.790;2023-12-29T08:00:57;99803.63;;;6.58;83.13
39891;BME280;25564;53.312;9.790;2023-12-29T08:03:29;99797.44;;;6.61;82.94
39891;BME280;25564;53.312;9.790;2023-12-29T08:06:00;99800.69;;;6.63;83.03
39891;BME280;25564;53.312;9.790;2023-12-29T08:08:32;99795.88;;;6.70;83.06
39891;BME280;25564;53.312;9.790;2023-12-29T08:11:05;99807.56;;;6.74;83.06
39891;BME280;25564;53.312;9.790;2023-12-29T08:13:38;99804.59;;;6.78;83.05
39891;BME280;25564;53.312;9.790;2023-12-29T08:16:11;99804.59;;;6.78;83.01
39891;BME280;25564;53.312;9.790;2023-12-29T08:18:43;99801.09;;;6.79;82.92
39891;BME280;25564;53.312;9.790;2023-12-29T08:21:18;99794.28;;;6.78;83.17
39891;BME280;25564;53.312;9.790;2023-12-29T08:23:50;99782.56;;;6.74;82.79
39891;BME280;25564;53.312;9.790;2023-12-29T08:26:22;99789.06;;;6.69;82.94
39891;BME280;25564;53.312;9.790;2023-12-29T08:28:56;99802.19;;;6.66;82.61
39891;BME280;25564;53.312;9.790;2023-12-29T08:31:27;99793.66;;;6.65;82.81
39891;BME280;25564;53.312;9.790;2023-12-29T08:34:01;99790.25;;;6.65;82.77
39891;BME280;25564;53.312;9.790;2023-12-29T08:36:33;99790.13;;;6.66;83.06
39891;BME280;25564;53.312;9.790;2023-12-29T08:39:05;99792.69;;;6.66;82.87
39891;BME280;25564;53.312;9.790;2023-12-29T08:41:37;99799.03;;;6.62;82.80
39891;BME280;25564;53.312;9.790;2023-12-29T08:44:09;99801.88;;;6.59;82.63
39891;BME280;25564;53.312;9.790;2023-12-29T08:46:40;99808.81;;;6.58;82.52
39891;BME280;25564;53.312;9.790;2023-12-29T08:49:12;99805.38;;;6.58;82.99
39891;BME280;25564;53.312;9.790;2023-12-29T08:51:44;99805.97;;;6.61;82.86
39891;BME280;25564;53.312;9.790;2023-12-29T08:54:16;99814.84;;;6.69;82.57
39891;BME280;25564;53.312;9.790;2023-12-29T08:56:48;99806.47;;;6.76;82.92
39891;BME280;25564;53.312;9.790;2023-12-29T08:59:20;99811.88;;;6.84;83.26
39891;BME280;25564;53.312;9.790;2023-12-29T09:01:51;99810.16;;;6.94;83.10
39891;BME280;25564;53.312;9.790;2023-12-29T09:04:23;99806.72;;;7.05;83.31
39891;BME280;25564;53.312;9.790;2023-12-29T09:06:55;99804.34;;;7.13;82.87
39891;BME280;25564;53.312;9.790;2023-12-29T09:09:26;99795.72;;;7.23;83.38
39891;BME280;25564;53.312;9.790;2023-12-29T09:11:58;99807.88;;;7.32;83.54
39891;BME280;25564;53.312;9.790;2023-12-29T09:14:30;99803.94;;;7.38;83.28
39891;BME280;25564;53.312;9.790;2023-12-29T09:17:04;99803.66;;;7.41;82.96
39891;BME280;25564;53.312;9.790;2023-12-29T09:19:37;99819.28;;;7.39;82.91
39891;BME280;25564;53.312;9.790;2023-12-29T09:22:12;99806.06;;;7.33;82.96
39891;BME280;25564;53.312;9.790;2023-12-29T09:24:44;99790.16;;;7.28;82.78
39891;BME280;25564;53.312;9.790;2023-12-29T09:27:16;99817.97;;;7.24;83.09
39891;BME280;25564;53.312;9.790;2023-12-29T09:29:50;99822.84;;;7.18;82.91
39891;BME280;25564;53.312;9.790;2023-12-29T09:32:23;99863.56;;;7.14;82.73
39891;BME280;25564;53.312;9.790;2023-12-29T09:34:55;99847.72;;;7.08;83.36
39891;BME280;25564;53.312;9.790;2023-12-29T09:37:26;99841.19;;;7.04;83.24
39891;BME280;25564;53.312;9.790;2023-12-29T09:39:59;99856.34;;;6.97;83.31
39891;BME280;25564;53.312;9.790;2023-12-29T09:42:31;99875.19;;;6.77;82.34
39891;BME280;25564;53.312;9.790;2023-12-29T09:45:08;99872.00;;;6.42;81.89
39891;BME280;25564;53.312;9.790;2023-12-29T09:47:42;99875.69;;;6.17;81.50
39891;BME280;25564;53.312;9.790;2023-12-29T09:50:14;99843.25;;;6.04;82.44
39891;BME280;25564;53.312;9.790;2023-12-29T09:52:48;99845.69;;;6.05;83.04
39891;BME280;25564;53.312;9.790;2023-12-29T09:55:21;99842.31;;;6.05;83.49
39891;BME280;25564;53.312;9.790;2023-12-29T09:57:53;99842.41;;;6.03;83.13
39891;BME280;25564;53.312;9.790;2023-12-29T10:00:26;99834.00;;;6.01;83.31
39891;BME280;25564;53.312;9.790;2023-12-29T10:02:58;99837.75;;;6.08;83.70
39891;BME280;25564;53.312;9.790;2023-12-29T10:05:34;99833.75;;;6.15;83.66
39891;BME280;25564;53.312;9.790;2023-12-29T10:08:17;99832.47;;;6.21;83.59
39891;BME280;25564;53.312;9.790;2023-12-29T10:10:49;99832.19;;;6.24;83.73
39891;BME280;25564;53.312;9.790;2023-12-29T10:13:24;99827.63;;;6.27;83.61
39891;BME280;25564;53.312;9.790;2023-12-29T10:16:32;99833.56;;;6.39;83.59
39891;BME280;25564;53.312;9.790;2023-12-29T10:19:10;99831.69;;;6.41;84.16
39891;BME280;25564;53.312;9.790;2023-12-29T10:21:55;99830.41;;;6.46;83.56
39891;BME280;25564;53.312;9.790;2023-12-29T10:24:30;99832.84;;;6.48;83.54
39891;BME280;25564;53.312;9.790;2023-12-29T10:27:02;99834.47;;;6.49;83.30
39891;BME280;25564;53.312;9.790;2023-12-29T10:29:34;99834.13;;;6.53;83.58
39891;BME280;25564;53.312;9.790;2023-12-29T10:32:06;99834.31;;;6.61;83.84
39891;BME280;25564;53.312;9.790;2023-12-29T10:34:38;99834.66;;;6.68;83.38
39891;BME280;25564;53.312;9.790;2023-12-29T10:37:10;99832.53;;;6.73;83.62
39891;BME280;25564;53.312;9.790;2023-12-29T10:39:55;99831.13;;;6.80;83.05
39891;BME280;25564;53.312;9.790;2023-12-29T10:42:28;99832.22;;;6.87;83.64
39891;BME280;25564;53.312;9.790;2023-12-29T10:45:08;99827.16;;;6.97;83.16
39891;BME280;25564;53.312;9.790;2023-12-29T10:47:43;99826.66;;;7.03;82.91
39891;BME280;25564;53.312;9.790;2023-12-29T10:50:15;99840.34;;;7.03;83.08
39891;BME280;25564;53.312;9.790;2023-12-29T10:52:46;99833.06;;;7.08;83.16
39891;BME280;25564;53.312;9.790;2023-12-29T10:55:23;99828.72;;;7.09;83.01
39891;BME280;25564;53.312;9.790;2023-12-29T10:58:00;99822.63;;;7.10;82.69
39891;BME280;25564;53.312;9.790;2023-12-29T11:00:32;99817.59;;;7.08;82.62
39891;BME280;25564;53.312;9.790;2023-12-29T11:03:07;99826.28;;;7.07;82.87
39891;BME280;25564;53.312;9.790;2023-12-29T11:05:38;99808.81;;;7.11;82.51
39891;BME280;25564;53.312;9.790;2023-12-29T11:08:21;99801.63;;;7.14;82.71
39891;BME280;25564;53.312;9.790;2023-12-29T11:10:53;99804.47;;;7.11;82.76
39891;BME280;25564;53.312;9.790;2023-12-29T11:13:26;99803.50;;;7.12;83.09
39891;BME280;25564;53.312;9.790;2023-12-29T11:15:59;99796.22;;;7.17;83.16
39891;BME280;25564;53.312;9.790;2023-12-29T11:18:33;99807.09;;;7.21;83.14
39891;BME280;25564;53.312;9.790;2023-12-29T11:21:08;99801.13;;;7.20;83.08
39891;BME280;25564;53.312;9.790;2023-12-29T11:23:39;99796.22;;;7.17;82.75
39891;BME280;25564;53.312;9.790;2023-12-29T11:26:12;99806.78;;;7.14;82.91
39891;BME280;25564;53.312;9.790;2023-12-29T11:28:47;99804.22;;;7.14;82.91
39891;BME280;25564;53.312;9.790;2023-12-29T11:31:20;99805.41;;;7.10;82.86
39891;BME280;25564;53.312;9.790;2023-12-29T11:34:19;99801.91;;;7.11;82.71
39891;BME280;25564;53.312;9.790;2023-12-29T11:36:48;99794.16;;;7.11;82.83
39891;BME280;25564;53.312;9.790;2023-12-29T11:39:30;99793.44;;;7.09;82.74
39891;BME280;25564;53.312;9.790;2023-12-29T11:43:23;99792.06;;;7.05;82.82
39891;BME280;25564;53.312;9.790;2023-12-29T11:45:55;99810.81;;;7.07;82.76
39891;BME280;25564;53.312;9.790;2023-12-29T11:48:56;99802.09;;;7.08;82.67
39891;BME280;25564;53.312;9.790;2023-12-29T11:51:39;99805.88;;;7.04;82.70
39891;BME280;25564;53.312;9.790;2023-12-29T11:54:22;99803.31;;;7.04;82.62
39891;BME280;25564;53.312;9.790;2023-12-29T11:56:55;99798.84;;;7.06;82.71
39891;BME280;25564;53.312;9.790;2023-12-29T11:59:26;99805.06;;;7.04;82.64
39891;BME280;25564;53.312;9.790;2023-12-29T12:01:59;99798.84;;;7.06;82.52
39891;BME280;25564;53.312;9.790;2023-12-29T12:04:38;99792.06;;;7.05;82.75
39891;BME280;25564;53.312;9.790;2023-12-29T12:12:54;99784.31;;;7.05;82.74
39891;BME280;25564;53.312;9.790;2023-12-29T12:18:10;99795.25;;;6.98;82.40
39891;BME280;25564;53.312;9.790;2023-12-29T12:20:50;99788.69;;;6.94;82.17
39891;BME280;25564;53.312;9.790;2023-12-29T12:23:24;99793.31;;;6.90;82.51
39891;BME280;25564;53.312;9.790;2023-12-29T12:25:57;99788.38;;;6.87;82.85
39891;BME280;25564;53.312;9.790;2023-12-29T12:28:31;99792.41;;;6.80;82.49
39891;BME280;25564;53.312;9.790;2023-12-29T12:31:05;99790.31;;;6.74;82.32
39891;BME280;25564;53.312;9.790;2023-12-29T12:33:38;99768.44;;;6.69;82.47
39891;BME280;25564;53.312;9.790;2023-12-29T12:36:10;99777.13;;;6.68;82.63
39891;BME280;25564;53.312;9.790;2023-12-29T12:38:52;99770.00;;;6.60;82.52
39891;BME280;25564;53.312;9.790;2023-12-29T12:41:25;99767.91;;;6.54;82.62
39891;BME280;25564;53.312;9.790;2023-12-29T12:44:12;99769.09;;;6.50;82.34
39891;BME280;25564;53.312;9.790;2023-12-29T12:49:20;99754.56;;;6.49;82.44
39891;BME280;25564;53.312;9.790;2023-12-29T12:51:53;99756.91;;;6.52;82.77
39891;BME280;25564;53.312;9.790;2023-12-29T12:54:25;99759.59;;;6.50;83.03
39891;BME280;25564;53.312;9.790;2023-12-29T12:56:57;99764.63;;;6.52;83.03
39891;BME280;25564;53.312;9.790;2023-12-29T12:59:29;99766.38;;;6.51;82.58
39891;BME280;25564;53.312;9.790;2023-12-29T13:02:02;99749.03;;;6.53;82.40
39891;BME280;25564;53.312;9.790;2023-12-29T13:04:40;99748.09;;;6.54;82.80
39891;BME280;25564;53.312;9.790;2023-12-29T13:07:17;99749.03;;;6.53;82.69
39891;BME280;25564;53.312;9.790;2023-12-29T13:09:50;99745.63;;;6.53;82.93
39891;BME280;25564;53.312;9.790;2023-12-29T13:12:23;99763.56;;;6.54;82.33
39891;BME280;25564;53.312;9.790;2023-12-29T13:15:07;99761.81;;;6.55;82.25
39891;BME280;25564;53.312;9.790;2023-12-29T13:17:52;99756.91;;;6.52;82.33
39891;BME280;25564;53.312;9.790;2023-12-29T13:20:25;99751.50;;;6.55;82.47
39891;BME280;25564;53.312;9.790;2023-12-29T13:22:57;99760.88;;;6.56;82.48
39891;BME280;25564;53.312;9.790;2023-12-29T13:25:31;99765.88;;;6.57;82.14
39891;BME280;25564;53.312;9.790;2023-12-29T13:28:03;99749.34;;;6.60;82.36
39891;BME280;25564;53.312;9.790;2023-12-29T13:30:35;99769.75;;;6.63;82.14
39891;BME280;25564;53.312;9.790;2023-12-29T13:33:14;99735.28;;;6.64;82.52
39891;BME280;25564;53.312;9.790;2023-12-29T13:35:54;99769.50;;;6.66;82.28
39891;BME280;25564;53.312;9.790;2023-12-29T13:38:42;99769.75;;;6.63;82.09
39891;BME280;25564;53.312;9.790;2023-12-29T13:41:19;99775.16;;;6.60;82.00
39891;BME280;25564;53.312;9.790;2023-12-29T13:43:54;99800.94;;;6.60;82.28
39891;BME280;25564;53.312;9.790;2023-12-29T13:46:26;99784.63;;;6.59;81.83
39891;BME280;25564;53.312;9.790;2023-12-29T13:48:59;99793.06;;;6.61;82.40
39891;BME280;25564;53.312;9.790;2023-12-29T13:51:31;99792.28;;;6.61;82.49
39891;BME280;25564;53.312;9.790;2023-12-29T13:54:03;99794.44;;;6.66;82.06
39891;BME280;25564;53.312;9.790;2023-12-29T13:56:35;99799.25;;;6.70;82.23